sensor_id;sensor_type;location;lat;lon;timestamp;pressure;altitude;pressure_sealevel;temperature;humidity
70943;BME280;59154;51.970;5.650;2022-11-04T00:00:04;99900;;;12.99819;93.6
70943;BME280;59154;51.970;5.650;2022-11-04T00:05:03;100000;;;13.04396;93.7
70943;BME280;59154;51.970;5.650;2022-11-04T00:10:03;100000;;;13.03887;93.5
70943;BME280;59154;51.970;5.650;2022-11-04T00:15:04;100000;;;13.02362;93.2
70943;BME280;59154;51.970;5.650;2022-11-04T00:20:04;100000;;;13.0643;92.9
70943;BME280;59154;51.970;5.650;2022-11-04T00:25:03;100000;;;12.9931;93.5
70943;BME280;59154;51.970;5.650;2022-11-04T00:30:04;100000;;;13.06939;93.0
70943;BME280;59154;51.970;5.650;2022-11-04T00:35:03;100000;;;13.1711;93.7
70943;BME280;59154;51.970;5.650;2022-11-04T00:40:04;100000;;;13.14568;92.5
70943;BME280;59154;51.970;5.650;2022-11-04T00:45:03;100000;;;13.15076;89.7
70943;BME280;59154;51.970;5.650;2022-11-04T00:50:03;100000;;;12.94225;86.4
70943;BME280;59154;51.970;5.650;2022-11-04T00:55:03;100000;;;12.98802;85.4
70943;BME280;59154;51.970;5.650;2022-11-04T01:00:04;100000;;;12.90156;84.6
70943;BME280;59154;51.970;5.650;2022-11-04T01:05:02;100000;;;12.78459;82.8
70943;BME280;59154;51.970;5.650;2022-11-04T01:10:03;100100;;;12.6371;84.6
70943;BME280;59154;51.970;5.650;2022-11-04T01:15:03;100100;;;12.54556;84.1
70943;BME280;59154;51.970;5.650;2022-11-04T01:20:03;100100;;;12.51505;85.1
70943;BME280;59154;51.970;5.650;2022-11-04T01:25:03;100100;;;12.30653;85.9
70943;BME280;59154;51.970;5.650;2022-11-04T01:30:03;100100;;;12.28619;85.0
70943;BME280;59154;51.970;5.650;2022-11-04T01:35:03;100100;;;12.31162;85.4
70943;BME280;59154;51.970;5.650;2022-11-04T01:40:04;100100;;;12.10819;85.5
70943;BME280;59154;51.970;5.650;2022-11-04T01:45:02;100100;;;12.01156;86.3
70943;BME280;59154;51.970;5.650;2022-11-04T01:50:06;100100;;;11.96579;86.7
70943;BME280;59154;51.970;5.650;2022-11-04T01:55:06;100100;;;11.99122;87.1
70943;BME280;59154;51.970;5.650;2022-11-04T02:00:05;100100;;;11.94545;89.1
70943;BME280;59154;51.970;5.650;2022-11-04T02:05:02;100100;;;12.01156;88.1
70943;BME280;59154;51.970;5.650;2022-11-04T02:10:03;100100;;;11.99122;89.0
70943;BME280;59154;51.970;5.650;2022-11-04T02:15:03;100200;;;11.97088;88.2
70943;BME280;59154;51.970;5.650;2022-11-04T02:20:14;100200;;;11.95053;88.3
70943;BME280;59154;51.970;5.650;2022-11-04T02:25:10;100100;;;11.99122;89.0
70943;BME280;59154;51.970;5.650;2022-11-04T02:30:06;100200;;;12.02173;89.1
70943;BME280;59154;51.970;5.650;2022-11-04T02:35:06;100200;;;11.86916;89.7
70943;BME280;59154;51.970;5.650;2022-11-04T02:40:13;100200;;;11.93019;89.5
70943;BME280;59154;51.970;5.650;2022-11-04T02:45:12;100200;;;11.88951;89.5
70943;BME280;59154;51.970;5.650;2022-11-04T02:50:07;100200;;;11.84882;89.8
70943;BME280;59154;51.970;5.650;2022-11-04T02:55:05;100200;;;11.80813;89.5
70943;BME280;59154;51.970;5.650;2022-11-04T03:00:05;100200;;;11.70642;90.0
70943;BME280;59154;51.970;5.650;2022-11-04T03:05:04;100200;;;11.75728;90.4
70943;BME280;59154;51.970;5.650;2022-11-04T03:10:07;100200;;;11.76236;90.3
70943;BME280;59154;51.970;5.650;2022-11-04T03:15:06;100200;;;11.78779;90.3
70943;BME280;59154;51.970;5.650;2022-11-04T03:20:08;100200;;;11.72676;90.6
70943;BME280;59154;51.970;5.650;2022-11-04T03:25:04;100200;;;11.82848;90.9
70943;BME280;59154;51.970;5.650;2022-11-04T03:30:06;100200;;;11.92002;90.9
70943;BME280;59154;51.970;5.650;2022-11-04T03:35:03;100200;;;11.85899;91.3
70943;BME280;59154;51.970;5.650;2022-11-04T03:40:04;100200;;;11.86916;90.6
70943;BME280;59154;51.970;5.650;2022-11-04T03:45:03;100200;;;11.89968;90.5
70943;BME280;59154;51.970;5.650;2022-11-04T03:50:07;100200;;;11.79796;90.0
70943;BME280;59154;51.970;5.650;2022-11-04T03:55:03;100200;;;11.84882;90.2
70943;BME280;59154;51.970;5.650;2022-11-04T04:00:09;100200;;;11.94036;89.8
70943;BME280;59154;51.970;5.650;2022-11-04T04:05:09;100300;;;11.72676;89.9
70943;BME280;59154;51.970;5.650;2022-11-04T04:10:07;100300;;;11.65556;89.5
70943;BME280;59154;51.970;5.650;2022-11-04T04:15:07;100300;;;11.58437;89.6
70943;BME280;59154;51.970;5.650;2022-11-04T04:20:06;100300;;;11.49791;89.8
70943;BME280;59154;51.970;5.650;2022-11-04T04:25:06;100300;;;11.45722;89.9
70943;BME280;59154;51.970;5.650;2022-11-04T04:30:06;100300;;;11.31991;90.4
70943;BME280;59154;51.970;5.650;2022-11-04T04:35:04;100300;;;11.24363;90.6
70943;BME280;59154;51.970;5.650;2022-11-04T04:40:05;100300;;;11.10632;90.8
70943;BME280;59154;51.970;5.650;2022-11-04T04:45:04;100300;;;11.01986;90.8
70943;BME280;59154;51.970;5.650;2022-11-04T04:50:03;100300;;;10.98935;90.8
70943;BME280;59154;51.970;5.650;2022-11-04T04:55:03;100300;;;10.969;90.7
70943;BME280;59154;51.970;5.650;2022-11-04T05:00:06;100300;;;10.91306;90.8
70943;BME280;59154;51.970;5.650;2022-11-04T05:05:03;100300;;;10.81135;90.9
70943;BME280;59154;51.970;5.650;2022-11-04T05:10:03;100300;;;10.71472;91.1
70943;BME280;59154;51.970;5.650;2022-11-04T05:15:02;100300;;;10.64861;91.1
70943;BME280;59154;51.970;5.650;2022-11-04T05:20:04;100300;;;10.59775;91.6
70943;BME280;59154;51.970;5.650;2022-11-04T05:25:03;100300;;;10.50621;91.7
70943;BME280;59154;51.970;5.650;2022-11-04T05:30:03;100300;;;10.37399;91.9
70943;BME280;59154;51.970;5.650;2022-11-04T05:35:02;100300;;;10.38924;92.1
70943;BME280;59154;51.970;5.650;2022-11-04T05:40:04;100300;;;10.34856;92.2
70943;BME280;59154;51.970;5.650;2022-11-04T05:45:03;100300;;;10.28753;92.7
70943;BME280;59154;51.970;5.650;2022-11-04T05:50:04;100300;;;10.20616;93.3
70943;BME280;59154;51.970;5.650;2022-11-04T05:55:03;100300;;;10.22142;93.5
70943;BME280;59154;51.970;5.650;2022-11-04T06:00:04;100300;;;10.28245;93.4
70943;BME280;59154;51.970;5.650;2022-11-04T06:05:03;100400;;;10.45027;92.8
70943;BME280;59154;51.970;5.650;2022-11-04T06:10:03;100400;;;10.52147;92.5
70943;BME280;59154;51.970;5.650;2022-11-04T06:15:03;100400;;;10.52656;92.5
70943;BME280;59154;51.970;5.650;2022-11-04T06:20:04;100400;;;10.5469;92.0
70943;BME280;59154;51.970;5.650;2022-11-04T06:25:03;100400;;;10.53673;91.9
70943;BME280;59154;51.970;5.650;2022-11-04T06:30:04;100400;;;10.54181;92.0
70943;BME280;59154;51.970;5.650;2022-11-04T06:35:03;100400;;;10.57233;92.0
70943;BME280;59154;51.970;5.650;2022-11-04T06:40:04;100400;;;10.62827;91.7
70943;BME280;59154;51.970;5.650;2022-11-04T06:45:03;100400;;;10.62827;91.0
70943;BME280;59154;51.970;5.650;2022-11-04T06:50:03;100400;;;10.58758;91.2
70943;BME280;59154;51.970;5.650;2022-11-04T06:55:03;100400;;;10.54181;91.1
70943;BME280;59154;51.970;5.650;2022-11-04T07:00:05;100400;;;10.4757;91.3
70943;BME280;59154;51.970;5.650;2022-11-04T07:05:03;100400;;;10.3333;91.6
70943;BME280;59154;51.970;5.650;2022-11-04T07:10:04;100400;;;10.35873;91.5
70943;BME280;59154;51.970;5.650;2022-11-04T07:15:03;100400;;;10.30279;91.8
70943;BME280;59154;51.970;5.650;2022-11-04T07:20:04;100400;;;10.35365;91.6
70943;BME280;59154;51.970;5.650;2022-11-04T07:25:04;100400;;;10.30788;92.0
70943;BME280;59154;51.970;5.650;2022-11-04T07:30:03;100400;;;10.26719;92.2
70943;BME280;59154;51.970;5.650;2022-11-04T07:35:03;100400;;;10.28245;92.3
70943;BME280;59154;51.970;5.650;2022-11-04T07:40:04;100400;;;10.34347;92.3
70943;BME280;59154;51.970;5.650;2022-11-04T07:45:03;100400;;;10.31296;92.8
70943;BME280;59154;51.970;5.650;2022-11-04T07:50:04;100400;;;10.28245;92.9
70943;BME280;59154;51.970;5.650;2022-11-04T07:55:03;100500;;;10.3333;92.9
70943;BME280;59154;51.970;5.650;2022-11-04T08:00:04;100500;;;10.46553;92.6
70943;BME280;59154;51.970;5.650;2022-11-04T08:05:03;100500;;;10.6893;92.0
70943;BME280;59154;51.970;5.650;2022-11-04T08:10:03;100500;;;10.78084;91.6
70943;BME280;59154;51.970;5.650;2022-11-04T08:15:03;100500;;;10.70455;91.8
70943;BME280;59154;51.970;5.650;2022-11-04T08:20:03;100500;;;10.71981;91.7
70943;BME280;59154;51.970;5.650;2022-11-04T08:25:02;100500;;;10.99443;91.2
70943;BME280;59154;51.970;5.650;2022-11-04T08:30:03;100500;;;11.10123;91.4
70943;BME280;59154;51.970;5.650;2022-11-04T08:35:03;100500;;;11.17751;90.6
70943;BME280;59154;51.970;5.650;2022-11-04T08:40:04;100500;;;11.23854;91.5
70943;BME280;59154;51.970;5.650;2022-11-04T08:45:02;100500;;;11.30974;90.5
70943;BME280;59154;51.970;5.650;2022-11-04T08:50:02;100500;;;11.37077;90.0
70943;BME280;59154;51.970;5.650;2022-11-04T08:55:03;100500;;;11.56402;90.1
70943;BME280;59154;51.970;5.650;2022-11-04T09:00:03;100500;;;11.65048;88.8
70943;BME280;59154;51.970;5.650;2022-11-04T09:05:02;100500;;;11.83356;89.4
70943;BME280;59154;51.970;5.650;2022-11-04T09:10:04;100500;;;12.06242;88.5
70943;BME280;59154;51.970;5.650;2022-11-04T09:15:03;100500;;;12.3879;88.0
70943;BME280;59154;51.970;5.650;2022-11-04T09:20:04;100500;;;12.44385;86.7
70943;BME280;59154;51.970;5.650;2022-11-04T09:25:03;100600;;;12.77442;85.5
70943;BME280;59154;51.970;5.650;2022-11-04T09:30:04;100600;;;12.83036;84.9
70943;BME280;59154;51.970;5.650;2022-11-04T09:35:03;100600;;;13.05413;84.1
70943;BME280;59154;51.970;5.650;2022-11-04T09:40:03;100600;;;13.01853;84.3
70943;BME280;59154;51.970;5.650;2022-11-04T09:45:08;100600;;;13.1355;84.1
70943;BME280;59154;51.970;5.650;2022-11-04T09:50:06;100600;;;13.14059;84.2
70943;BME280;59154;51.970;5.650;2022-11-04T09:55:05;100600;;;13.15585;84.4
70943;BME280;59154;51.970;5.650;2022-11-04T10:00:04;100600;;;13.1355;83.6
70943;BME280;59154;51.970;5.650;2022-11-04T10:05:12;100600;;;13.25248;83.4
70943;BME280;59154;51.970;5.650;2022-11-04T10:10:09;100600;;;13.13042;83.1
70943;BME280;59154;51.970;5.650;2022-11-04T10:15:16;100600;;;13.21179;83.9
70943;BME280;59154;51.970;5.650;2022-11-04T10:20:18;100600;;;13.22196;83.1
70943;BME280;59154;51.970;5.650;2022-11-04T10:25:09;100600;;;13.1711;82.5
70943;BME280;59154;51.970;5.650;2022-11-04T10:30:12;100600;;;13.20162;82.0
70943;BME280;59154;51.970;5.650;2022-11-04T10:35:05;100600;;;13.32876;82.5
70943;BME280;59154;51.970;5.650;2022-11-04T10:40:16;100600;;;13.39996;82.3
70943;BME280;59154;51.970;5.650;2022-11-04T10:45:03;100600;;;13.12025;83.1
70943;BME280;59154;51.970;5.650;2022-11-04T10:50:17;100700;;;13.15585;83.4
70943;BME280;59154;51.970;5.650;2022-11-04T10:55:05;100700;;;13.13042;82.9
70943;BME280;59154;51.970;5.650;2022-11-04T11:00:04;100700;;;13.17619;83.4
70943;BME280;59154;51.970;5.650;2022-11-04T11:05:12;100700;;;13.25756;82.8
70943;BME280;59154;51.970;5.650;2022-11-04T11:10:03;100600;;;13.29316;83.4
70943;BME280;59154;51.970;5.650;2022-11-04T11:15:18;100700;;;13.26773;83.5
70943;BME280;59154;51.970;5.650;2022-11-04T11:20:18;100700;;;13.28299;83.6
70943;BME280;59154;51.970;5.650;2022-11-04T11:25:36;100600;;;13.31351;83.1
70943;BME280;59154;51.970;5.650;2022-11-04T11:30:03;100700;;;13.26773;82.8
70943;BME280;59154;51.970;5.650;2022-11-04T11:35:03;100700;;;13.30842;83.3
70943;BME280;59154;51.970;5.650;2022-11-04T11:40:04;100700;;;13.18636;83.0
70943;BME280;59154;51.970;5.650;2022-11-04T11:45:02;100700;;;13.18128;83.4
70943;BME280;59154;51.970;5.650;2022-11-04T11:50:06;100700;;;13.07447;83.9
70943;BME280;59154;51.970;5.650;2022-11-04T11:55:05;100700;;;13.0999;84.2
70943;BME280;59154;51.970;5.650;2022-11-04T12:00:05;100700;;;13.01853;85.0
70943;BME280;59154;51.970;5.650;2022-11-04T12:05:06;100700;;;13.05413;84.7
70943;BME280;59154;51.970;5.650;2022-11-04T12:10:09;100700;;;13.21688;85.0
70943;BME280;59154;51.970;5.650;2022-11-04T12:15:14;100700;;;13.29316;84.3
70943;BME280;59154;51.970;5.650;2022-11-04T12:20:19;100700;;;13.20162;83.8
70943;BME280;59154;51.970;5.650;2022-11-04T12:25:10;100700;;;13.48134;83.7
70943;BME280;59154;51.970;5.650;2022-11-04T12:30:06;100700;;;13.30842;83.5
70943;BME280;59154;51.970;5.650;2022-11-04T12:35:16;100700;;;13.33385;82.9
70943;BME280;59154;51.970;5.650;2022-11-04T12:40:11;100700;;;13.36436;82.8
70943;BME280;59154;51.970;5.650;2022-11-04T12:45:16;100700;;;13.65934;82.0
70943;BME280;59154;51.970;5.650;2022-11-04T12:50:14;100700;;;13.68477;82.7
70943;BME280;59154;51.970;5.650;2022-11-04T12:55:14;100700;;;13.38471;83.1
70943;BME280;59154;51.970;5.650;2022-11-04T13:00:08;100700;;;13.62882;82.5
70943;BME280;59154;51.970;5.650;2022-11-04T13:05:07;100700;;;13.79665;82.3
70943;BME280;59154;51.970;5.650;2022-11-04T13:10:05;100800;;;13.75088;82.5
70943;BME280;59154;51.970;5.650;2022-11-04T13:15:12;100800;;;13.82717;82.1
70943;BME280;59154;51.970;5.650;2022-11-04T13:20:12;100800;;;13.86277;81.9
70943;BME280;59154;51.970;5.650;2022-11-04T13:25:05;100800;;;13.62374;82.8
70943;BME280;59154;51.970;5.650;2022-11-04T13:30:07;100800;;;13.70511;82.7
70943;BME280;59154;51.970;5.650;2022-11-04T13:35:08;100800;;;13.82208;82.9
70943;BME280;59154;51.970;5.650;2022-11-04T13:40:11;100800;;;13.72545;83.5
70943;BME280;59154;51.970;5.650;2022-11-04T13:45:09;100800;;;13.93397;82.5
70943;BME280;59154;51.970;5.650;2022-11-04T13:50:04;100800;;;13.95431;82.6
70943;BME280;59154;51.970;5.650;2022-11-04T13:55:05;100800;;;14.03568;82.6
70943;BME280;59154;51.970;5.650;2022-11-04T14:00:17;100800;;;14.00517;82.9
70943;BME280;59154;51.970;5.650;2022-11-04T14:05:46;100800;;;13.86277;83.8
70943;BME280;59154;51.970;5.650;2022-11-04T14:10:36;100800;;;13.96957;84.0
70943;BME280;59154;51.970;5.650;2022-11-04T14:15:09;100800;;;13.90345;84.1
70943;BME280;59154;51.970;5.650;2022-11-04T14:20:09;100800;;;13.80174;84.6
70943;BME280;59154;51.970;5.650;2022-11-04T14:25:18;100800;;;13.85768;84.8
70943;BME280;59154;51.970;5.650;2022-11-04T14:30:03;100800;;;13.56271;85.0
70943;BME280;59154;51.970;5.650;2022-11-04T14:35:04;100900;;;12.95242;85.2
70943;BME280;59154;51.970;5.650;2022-11-04T14:40:21;100900;;;12.8507;79.9
70943;BME280;59154;51.970;5.650;2022-11-04T14:45:06;100900;;;12.09802;80.9
70943;BME280;59154;51.970;5.650;2022-11-04T14:50:04;100900;;;12.14379;81.6
70943;BME280;59154;51.970;5.650;2022-11-04T14:55:04;100900;;;12.18447;82.8
70943;BME280;59154;51.970;5.650;2022-11-04T15:00:38;100900;;;12.29127;83.5
70943;BME280;59154;51.970;5.650;2022-11-04T15:05:03;100900;;;12.41333;83.3
70943;BME280;59154;51.970;5.650;2022-11-04T15:10:18;100900;;;12.61167;83.4
70943;BME280;59154;51.970;5.650;2022-11-04T15:15:25;100900;;;12.62693;83.3
70943;BME280;59154;51.970;5.650;2022-11-04T15:20:04;100900;;;12.57099;82.5
70943;BME280;59154;51.970;5.650;2022-11-04T15:25:03;100900;;;12.45402;83.5
70943;BME280;59154;51.970;5.650;2022-11-04T15:30:04;101000;;;12.43367;83.8
70943;BME280;59154;51.970;5.650;2022-11-04T15:35:03;101000;;;12.4947;83.7
70943;BME280;59154;51.970;5.650;2022-11-04T15:40:05;101000;;;12.47945;83.2
70943;BME280;59154;51.970;5.650;2022-11-04T15:45:28;101000;;;12.48962;82.8
70943;BME280;59154;51.970;5.650;2022-11-04T15:50:18;101000;;;12.47436;83.0
70943;BME280;59154;51.970;5.650;2022-11-04T15:55:02;101000;;;12.3167;83.4
70943;BME280;59154;51.970;5.650;2022-11-04T16:00:06;101000;;;12.31162;83.5
70943;BME280;59154;51.970;5.650;2022-11-04T16:05:05;101000;;;12.12853;83.7
70943;BME280;59154;51.970;5.650;2022-11-04T16:10:22;101000;;;12.17939;83.8
70943;BME280;59154;51.970;5.650;2022-11-04T16:15:03;101000;;;12.02173;84.5
70943;BME280;59154;51.970;5.650;2022-11-04T16:20:04;101000;;;11.97088;86.0
70943;BME280;59154;51.970;5.650;2022-11-04T16:25:05;101000;;;11.78779;87.6
70943;BME280;59154;51.970;5.650;2022-11-04T16:30:15;101000;;;11.67591;87.9
70943;BME280;59154;51.970;5.650;2022-11-04T16:35:12;101000;;;11.57419;88.3
70943;BME280;59154;51.970;5.650;2022-11-04T16:40:04;101000;;;11.53859;88.4
70943;BME280;59154;51.970;5.650;2022-11-04T16:45:04;101000;;;11.503;89.1
70943;BME280;59154;51.970;5.650;2022-11-04T16:50:12;101000;;;11.48774;89.3
70943;BME280;59154;51.970;5.650;2022-11-04T16:55:03;101000;;;11.45214;89.3
70943;BME280;59154;51.970;5.650;2022-11-04T17:00:05;101000;;;11.49282;89.1
70943;BME280;59154;51.970;5.650;2022-11-04T17:05:03;101100;;;11.52334;88.5
70943;BME280;59154;51.970;5.650;2022-11-04T17:10:04;101100;;;11.50808;88.2
70943;BME280;59154;51.970;5.650;2022-11-04T17:15:03;101100;;;11.53351;87.9
70943;BME280;59154;51.970;5.650;2022-11-04T17:20:04;101100;;;11.50808;86.9
70943;BME280;59154;51.970;5.650;2022-11-04T17:25:02;101100;;;11.45214;86.4
70943;BME280;59154;51.970;5.650;2022-11-04T17:30:03;101100;;;11.48265;86.6
70943;BME280;59154;51.970;5.650;2022-11-04T17:35:02;101100;;;11.53859;86.4
70943;BME280;59154;51.970;5.650;2022-11-04T17:40:06;101100;;;11.50808;85.9
70943;BME280;59154;51.970;5.650;2022-11-04T17:45:03;101100;;;11.53859;85.9
70943;BME280;59154;51.970;5.650;2022-11-04T17:50:03;101100;;;11.503;85.6
70943;BME280;59154;51.970;5.650;2022-11-04T17:55:03;101100;;;11.49791;85.8
70943;BME280;59154;51.970;5.650;2022-11-04T18:00:05;101100;;;11.51317;86.3
70943;BME280;59154;51.970;5.650;2022-11-04T18:05:03;101100;;;11.48265;86.3
70943;BME280;59154;51.970;5.650;2022-11-04T18:10:03;101100;;;11.40637;86.7
70943;BME280;59154;51.970;5.650;2022-11-04T18:15:03;101100;;;11.3606;86.4
70943;BME280;59154;51.970;5.650;2022-11-04T18:20:05;101100;;;11.40637;86.7
70943;BME280;59154;51.970;5.650;2022-11-04T18:25:03;101100;;;11.2894;86.6
70943;BME280;59154;51.970;5.650;2022-11-04T18:30:04;101100;;;11.22837;86.8
70943;BME280;59154;51.970;5.650;2022-11-04T18:35:02;101200;;;11.147;86.6
70943;BME280;59154;51.970;5.650;2022-11-04T18:40:04;101200;;;11.13174;86.5
70943;BME280;59154;51.970;5.650;2022-11-04T18:45:03;101200;;;11.1114;86.9
70943;BME280;59154;51.970;5.650;2022-11-04T18:50:04;101200;;;11.1114;86.9
70943;BME280;59154;51.970;5.650;2022-11-04T18:55:02;101200;;;11.08089;87.2
70943;BME280;59154;51.970;5.650;2022-11-04T19:00:04;101200;;;11.02495;87.4
70943;BME280;59154;51.970;5.650;2022-11-04T19:05:03;101200;;;10.90289;87.5
70943;BME280;59154;51.970;5.650;2022-11-04T19:10:03;101200;;;10.81135;87.4
70943;BME280;59154;51.970;5.650;2022-11-04T19:15:02;101200;;;10.63335;88.0
70943;BME280;59154;51.970;5.650;2022-11-04T19:20:04;101200;;;10.5469;88.0
70943;BME280;59154;51.970;5.650;2022-11-04T19:25:03;101200;;;10.43502;88.4
70943;BME280;59154;51.970;5.650;2022-11-04T19:30:04;101200;;;10.32313;88.7
70943;BME280;59154;51.970;5.650;2022-11-04T19:35:03;101200;;;10.2977;88.6
70943;BME280;59154;51.970;5.650;2022-11-04T19:40:04;101200;;;10.28245;88.3
70943;BME280;59154;51.970;5.650;2022-11-04T19:45:03;101200;;;10.18074;88.5
70943;BME280;59154;51.970;5.650;2022-11-04T19:50:03;101200;;;10.16548;88.5
70943;BME280;59154;51.970;5.650;2022-11-04T19:55:03;101200;;;10.11971;89.0
70943;BME280;59154;51.970;5.650;2022-11-04T20:00:03;101200;;;10.06377;89.2
70943;BME280;59154;51.970;5.650;2022-11-04T20:05:02;101200;;;9.98748;89.7
70943;BME280;59154;51.970;5.650;2022-11-04T20:10:04;101200;;;9.88069;90.1
70943;BME280;59154;51.970;5.650;2022-11-04T20:15:02;101200;;;9.76372;90.8
70943;BME280;59154;51.970;5.650;2022-11-04T20:20:04;101200;;;9.83492;90.6
70943;BME280;59154;51.970;5.650;2022-11-04T20:25:02;101300;;;9.66201;91.3
70943;BME280;59154;51.970;5.650;2022-11-04T20:30:04;101300;;;9.62641;91.5
70943;BME280;59154;51.970;5.650;2022-11-04T20:35:03;101300;;;9.58064;91.7
70943;BME280;59154;51.970;5.650;2022-11-04T20:40:04;101300;;;9.5959;91.8
70943;BME280;59154;51.970;5.650;2022-11-04T20:45:03;101300;;;9.65692;91.4
70943;BME280;59154;51.970;5.650;2022-11-04T20:50:03;101300;;;9.71286;91.0
70943;BME280;59154;51.970;5.650;2022-11-04T20:55:03;101300;;;9.61115;91.2
70943;BME280;59154;51.970;5.650;2022-11-04T21:00:04;101300;;;9.5603;91.3
70943;BME280;59154;51.970;5.650;2022-11-04T21:05:03;101300;;;9.5959;90.5
70943;BME280;59154;51.970;5.650;2022-11-04T21:10:03;101300;;;9.57555;90.6
70943;BME280;59154;51.970;5.650;2022-11-04T21:15:03;101300;;;9.55521;90.3
70943;BME280;59154;51.970;5.650;2022-11-04T21:20:04;101300;;;9.51961;90.1
70943;BME280;59154;51.970;5.650;2022-11-04T21:25:02;101300;;;9.4179;90.4
70943;BME280;59154;51.970;5.650;2022-11-04T21:30:04;101300;;;9.40773;90.1
70943;BME280;59154;51.970;5.650;2022-11-04T21:35:03;101300;;;9.29077;90.9
70943;BME280;59154;51.970;5.650;2022-11-04T21:40:04;101300;;;9.27042;90.7
70943;BME280;59154;51.970;5.650;2022-11-04T21:45:02;101400;;;9.17888;90.2
70943;BME280;59154;51.970;5.650;2022-11-04T21:50:04;101400;;;9.16363;90.0
70943;BME280;59154;51.970;5.650;2022-11-04T21:55:03;101400;;;9.16871;89.7
70943;BME280;59154;51.970;5.650;2022-11-04T22:00:04;101400;;;9.13311;89.7
70943;BME280;59154;51.970;5.650;2022-11-04T22:05:02;101400;;;9.09243;89.1
70943;BME280;59154;51.970;5.650;2022-11-04T22:10:03;101400;;;9.06192;89.0
70943;BME280;59154;51.970;5.650;2022-11-04T22:15:02;101400;;;8.98563;89.3
70943;BME280;59154;51.970;5.650;2022-11-04T22:20:04;101400;;;8.97546;89.0
70943;BME280;59154;51.970;5.650;2022-11-04T22:25:03;101400;;;8.98563;89.2
70943;BME280;59154;51.970;5.650;2022-11-04T22:30:03;101400;;;9.00089;89.2
70943;BME280;59154;51.970;5.650;2022-11-04T22:35:03;101400;;;9.02123;89.5
70943;BME280;59154;51.970;5.650;2022-11-04T22:40:05;101400;;;9.04157;90.4
70943;BME280;59154;51.970;5.650;2022-11-04T22:45:03;101400;;;9.18397;91.0
70943;BME280;59154;51.970;5.650;2022-11-04T22:50:03;101400;;;9.25008;91.1
70943;BME280;59154;51.970;5.650;2022-11-04T22:55:02;101400;;;9.25008;91.4
70943;BME280;59154;51.970;5.650;2022-11-04T23:00:05;101400;;;9.31619;91.1
70943;BME280;59154;51.970;5.650;2022-11-04T23:05:03;101400;;;9.35179;91.0
70943;BME280;59154;51.970;5.650;2022-11-04T23:10:03;101400;;;9.32128;91.1
70943;BME280;59154;51.970;5.650;2022-11-04T23:15:03;101400;;;9.27551;91.3
70943;BME280;59154;51.970;5.650;2022-11-04T23:20:06;101400;;;9.30094;91.6
70943;BME280;59154;51.970;5.650;2022-11-04T23:25:02;101400;;;9.53487;91.6
70943;BME280;59154;51.970;5.650;2022-11-04T23:30:07;101400;;;9.49419;91.4
70943;BME280;59154;51.970;5.650;2022-11-04T23:35:02;101400;;;9.58064;91.1
70943;BME280;59154;51.970;5.650;2022-11-04T23:40:04;101400;;;9.57047;90.8
70943;BME280;59154;51.970;5.650;2022-11-04T23:45:02;101500;;;9.51961;90.8
70943;BME280;59154;51.970;5.650;2022-11-04T23:50:03;101500;;;9.5959;90.9
70943;BME280;59154;51.970;5.650;2022-11-04T23:55:03;101500;;;9.50436;90.5
